createdAt,value
2023-03-08T00:01:02.132Z,61.83
2023-03-08T00:02:10.351Z,62.03
2023-03-08T00:03:25.759Z,57.40
2023-03-08T00:04:32.254Z,64.22
2023-03-08T00:05:41.762Z,57.22
2023-03-08T00:06:50.070Z,56.80
2023-03-08T00:07:55.972Z,58.33
2023-03-08T00:09:09.370Z,52.97
2023-03-08T00:10:23.015Z,56.55
2023-03-08T00:11:29.322Z,54.80
2023-03-08T00:12:37.707Z,56.88
2023-03-08T00:13:42.025Z,60.42
2023-03-08T00:14:52.203Z,61.90
2023-03-08T00:16:03.118Z,60.58
2023-03-08T00:17:08.156Z,62.55
2023-03-08T00:18:11.638Z,66.05
2023-03-08T00:19:20.831Z,57.03
2023-03-08T00:20:30.419Z,59.63
2023-03-08T00:21:34.491Z,59.55
2023-03-08T00:22:42.647Z,56.70
2023-03-08T00:23:50.563Z,55.80
2023-03-08T00:25:06.331Z,67.47
2023-03-08T00:26:24.233Z,64.47
2023-03-08T00:27:32.928Z,53.55
2023-03-08T00:28:38.915Z,52.08
2023-03-08T00:29:46.431Z,54.05
2023-03-08T00:31:02.943Z,50.55
2023-03-08T00:32:11.001Z,52.72
2023-03-08T00:33:20.866Z,53.30
2023-03-08T00:34:25.935Z,54.80
2023-03-08T00:35:31.706Z,56.10
2023-03-08T00:36:38.044Z,56.60
2023-03-08T00:38:09.567Z,55.17
2023-03-08T00:39:16.551Z,48.63
2023-03-08T00:40:20.728Z,55.85
2023-03-08T00:41:25.204Z,51.60
2023-03-08T00:44:28.419Z,45.67
2023-03-08T00:45:43.893Z,53.92
2023-03-08T00:46:49.318Z,52.33
2023-03-08T00:47:57.402Z,49.10
2023-03-08T00:49:06.882Z,51.95
2023-03-08T00:50:17.127Z,46.83
2023-03-08T00:51:28.342Z,44.90
2023-03-08T00:52:34.419Z,46.47
2023-03-08T00:53:42.081Z,47.88
2023-03-08T00:54:54.598Z,46.50
2023-03-08T00:56:00.398Z,45.08
2023-03-08T00:57:07.834Z,42.63
2023-03-08T00:58:17.778Z,45.67
2023-03-08T00:59:25.824Z,56.75
2023-03-08T01:00:38.961Z,48.58
2023-03-08T01:01:43.522Z,49.33
2023-03-08T01:02:49.974Z,50.25
2023-03-08T01:03:56.133Z,48.88
2023-03-08T01:05:04.949Z,50.38
2023-03-08T01:06:16.079Z,53.00
2023-03-08T01:07:31.039Z,49.55
2023-03-08T01:08:43.288Z,47.20
2023-03-08T01:10:59.686Z,46.47
2023-03-08T01:12:07.392Z,42.65
2023-03-08T01:13:21.565Z,56.10
2023-03-08T01:14:26.377Z,48.38
2023-03-08T01:15:43.016Z,48.33
2023-03-08T01:16:49.831Z,52.05
2023-03-08T01:17:54.459Z,50.35
2023-03-08T01:19:00.998Z,56.15
2023-03-08T01:20:13.104Z,50.15
2023-03-08T01:21:22.916Z,54.05
2023-03-08T01:22:34.223Z,52.90
2023-03-08T01:23:42.465Z,51.75
2023-03-08T01:24:50.087Z,48.00
2023-03-08T01:26:05.349Z,57.38
2023-03-08T01:27:11.531Z,53.17
2023-03-08T01:28:18.577Z,47.88
2023-03-08T01:29:27.270Z,51.58
2023-03-08T01:30:36.482Z,52.10
2023-03-08T01:31:43.381Z,50.38
2023-03-08T01:32:55.304Z,60.47
2023-03-08T01:34:00.699Z,52.17
2023-03-08T01:36:38.006Z,59.90
2023-03-08T01:37:45.285Z,54.78
2023-03-08T01:38:50.519Z,56.33
2023-03-08T01:40:06.337Z,48.92
2023-03-08T01:41:19.372Z,50.40
2023-03-08T01:42:30.836Z,54.97
2023-03-08T01:43:45.120Z,49.83
2023-03-08T01:45:00.534Z,51.17
2023-03-08T01:46:49.817Z,54.42
2023-03-08T01:48:13.742Z,51.40
2023-03-08T01:49:40.531Z,48.90
2023-03-08T01:50:54.202Z,55.97
2023-03-08T01:53:18.162Z,53.72
2023-03-08T01:55:43.047Z,54.08
2023-03-08T01:58:10.183Z,58.53
2023-03-08T01:59:17.312Z,51.55
2023-03-08T02:00:28.723Z,54.95
2023-03-08T02:01:37.172Z,50.28
2023-03-08T02:02:50.951Z,49.10
2023-03-08T02:03:56.474Z,53.15
2023-03-08T02:05:01.739Z,53.88
2023-03-08T02:06:32.170Z,52.40
2023-03-08T02:07:38.879Z,57.00
2023-03-08T02:08:44.827Z,54.45
2023-03-08T02:09:49.566Z,54.70
2023-03-08T02:10:55.214Z,57.03
2023-03-08T02:12:18.736Z,59.97
2023-03-08T02:13:27.227Z,58.65
2023-03-08T02:14:32.973Z,60.10
2023-03-08T02:15:36.913Z,59.72
2023-03-08T02:16:41.710Z,60.17
2023-03-08T02:17:49.548Z,58.13
2023-03-08T02:19:07.775Z,64.30
2023-03-08T02:20:33.213Z,64.47
2023-03-08T02:21:48.158Z,64.38
2023-03-08T02:24:23.078Z,66.13
2023-03-08T02:25:34.285Z,69.85
2023-03-08T02:26:39.905Z,69.22
2023-03-08T02:27:46.212Z,73.78
2023-03-08T02:28:58.404Z,74.30
2023-03-08T02:30:14.805Z,79.07
2023-03-08T02:32:44.316Z,72.88
2023-03-08T02:33:49.866Z,72.93
2023-03-08T02:34:54.773Z,81.68
2023-03-08T02:36:02.512Z,80.82
2023-03-08T02:37:06.644Z,87.53
2023-03-08T02:39:02.294Z,85.70
2023-03-08T02:40:09.938Z,86.72
2023-03-08T02:41:20.516Z,96.85
2023-03-08T02:42:23.866Z,93.90
2023-03-08T02:43:33.043Z,97.78
2023-03-08T02:44:36.586Z,101.20
2023-03-08T02:45:43.891Z,98.15
2023-03-08T02:46:47.305Z,100.13
2023-03-08T02:47:53.084Z,109.10
2023-03-08T02:48:59.070Z,109.30
2023-03-08T02:50:05.967Z,113.35
2023-03-08T02:51:13.637Z,131.35
2023-03-08T02:52:19.166Z,139.10
2023-03-08T02:53:24.117Z,135.77
2023-03-08T02:54:28.517Z,162.82
2023-03-08T02:55:34.433Z,149.13
2023-03-08T02:56:47.763Z,156.55
2023-03-08T02:57:54.113Z,166.90
2023-03-08T02:58:59.187Z,168.10
2023-03-08T03:00:07.622Z,188.77
2023-03-08T03:01:16.229Z,183.77
2023-03-08T03:02:24.896Z,184.50
2023-03-08T03:03:33.583Z,189.55
2023-03-08T03:04:49.005Z,200.18
2023-03-08T03:06:00.322Z,206.57
2023-03-08T03:07:15.473Z,204.82
2023-03-08T03:08:20.907Z,181.90
2023-03-08T03:09:51.021Z,186.55
2023-03-08T03:10:56.705Z,182.23
2023-03-08T03:12:07.362Z,170.85
2023-03-08T03:13:20.959Z,178.68
2023-03-08T03:14:32.049Z,207.32
2023-03-08T03:15:40.096Z,210.38
2023-03-08T03:16:48.692Z,242.70
2023-03-08T03:17:55.238Z,186.75
2023-03-08T03:19:07.463Z,208.63
2023-03-08T03:21:19.793Z,174.48
2023-03-08T03:22:25.343Z,186.20
2023-03-08T03:23:30.590Z,168.88
2023-03-08T03:24:37.554Z,175.35
2023-03-08T03:25:45.760Z,152.77
2023-03-08T03:26:53.454Z,132.73
2023-03-08T03:27:59.701Z,136.23
2023-03-08T03:29:09.721Z,126.63
2023-03-08T03:30:18.308Z,133.80
2023-03-08T03:31:29.562Z,122.18
2023-03-08T03:33:56.268Z,132.65
2023-03-08T03:35:06.175Z,111.55
2023-03-08T03:36:20.388Z,99.32
2023-03-08T03:37:28.176Z,106.13
2023-03-08T03:38:37.097Z,92.80
2023-03-08T03:39:43.850Z,92.47
2023-03-08T03:41:00.450Z,95.30
2023-03-08T03:42:05.094Z,84.10
2023-03-08T03:43:13.755Z,80.70
2023-03-08T03:44:17.758Z,84.90
2023-03-08T03:45:26.800Z,84.15
2023-03-08T03:46:34.263Z,83.53
2023-03-08T03:48:55.348Z,83.78
2023-03-08T03:50:04.388Z,83.88
2023-03-08T03:51:26.469Z,80.82
2023-03-08T03:52:51.495Z,76.55
2023-03-08T03:53:56.855Z,81.22
2023-03-08T03:55:04.100Z,81.43
2023-03-08T03:56:35.366Z,77.35
2023-03-08T03:57:49.732Z,71.00
2023-03-08T03:58:58.113Z,80.88
2023-03-08T04:00:09.311Z,86.07
2023-03-08T04:01:28.382Z,73.88
2023-03-08T04:02:45.317Z,72.78
2023-03-08T04:04:01.938Z,78.53
2023-03-08T04:05:16.271Z,85.35
2023-03-08T04:06:32.754Z,78.97
2023-03-08T04:07:39.558Z,79.07
2023-03-08T04:08:44.461Z,90.75
2023-03-08T04:09:53.633Z,107.78
2023-03-08T04:11:29.415Z,101.78
2023-03-08T04:12:33.993Z,119.15
2023-03-08T04:13:55.503Z,141.43
2023-03-08T04:15:02.619Z,132.15
2023-03-08T04:16:15.415Z,138.30
2023-03-08T04:17:28.164Z,150.18
2023-03-08T04:18:35.717Z,145.85
2023-03-08T04:19:41.615Z,143.27
2023-03-08T04:20:54.213Z,158.10
2023-03-08T04:22:05.263Z,135.00
2023-03-08T04:23:18.049Z,145.43
2023-03-08T04:24:49.538Z,123.20
2023-03-08T04:26:02.684Z,123.10
2023-03-08T04:27:12.547Z,125.53
2023-03-08T04:29:24.349Z,137.38
2023-03-08T04:30:31.219Z,153.35
2023-03-08T04:31:40.259Z,147.45
2023-03-08T04:32:49.003Z,138.55
2023-03-08T04:33:54.809Z,141.10
2023-03-08T04:35:08.019Z,143.15
2023-03-08T04:36:17.309Z,154.70
2023-03-08T04:37:23.276Z,147.43
2023-03-08T04:38:37.600Z,153.70
2023-03-08T04:39:46.750Z,154.18
2023-03-08T04:41:05.584Z,147.63
2023-03-08T04:42:37.105Z,158.77
2023-03-08T04:43:57.464Z,145.52
2023-03-08T04:45:21.397Z,138.93
2023-03-08T04:46:29.357Z,159.77
2023-03-08T04:47:40.157Z,151.98
2023-03-08T04:48:54.474Z,162.32
2023-03-08T04:50:01.087Z,161.32
2023-03-08T04:51:12.414Z,166.50
2023-03-08T04:52:17.010Z,184.68
2023-03-08T04:53:24.142Z,157.70
2023-03-08T04:54:31.041Z,171.13
2023-03-08T04:55:42.271Z,164.98
2023-03-08T04:56:59.322Z,156.77
2023-03-08T04:58:09.976Z,151.68
2023-03-08T04:59:25.141Z,157.25
2023-03-08T05:00:38.366Z,138.77
2023-03-08T05:01:45.307Z,139.90
2023-03-08T05:02:51.157Z,150.93
2023-03-08T05:04:01.840Z,141.27
2023-03-08T05:05:17.041Z,133.70
2023-03-08T05:06:40.066Z,131.20
2023-03-08T05:08:15.490Z,123.32
2023-03-08T05:09:26.052Z,121.95
2023-03-08T05:10:36.047Z,109.80
2023-03-08T05:11:41.666Z,124.63
2023-03-08T05:14:31.543Z,99.07
2023-03-08T05:16:03.222Z,105.85
2023-03-08T05:17:16.856Z,101.95
2023-03-08T05:18:25.497Z,100.80
2023-03-08T05:19:30.008Z,96.65
2023-03-08T05:20:43.464Z,104.47
2023-03-08T05:21:49.554Z,91.82
2023-03-08T05:23:15.553Z,99.03
2023-03-08T05:24:28.904Z,85.60
2023-03-08T05:25:48.344Z,77.80
2023-03-08T05:26:54.299Z,86.57
2023-03-08T05:28:03.632Z,86.10
2023-03-08T05:29:09.306Z,87.25
2023-03-08T05:30:17.412Z,79.47
2023-03-08T05:31:26.914Z,82.65
2023-03-08T05:32:46.868Z,78.18
2023-03-08T05:33:57.374Z,77.63
2023-03-08T05:35:20.593Z,78.00
2023-03-08T05:36:26.964Z,82.15
2023-03-08T05:37:38.200Z,82.80
2023-03-08T05:38:43.429Z,78.57
2023-03-08T05:39:50.763Z,79.43
2023-03-08T05:42:35.450Z,91.95
2023-03-08T05:43:42.124Z,99.47
2023-03-08T05:45:02.786Z,101.18
2023-03-08T05:46:19.568Z,91.45
2023-03-08T05:47:32.583Z,82.05
2023-03-08T05:48:42.530Z,91.53
2023-03-08T05:49:58.189Z,84.07
2023-03-08T05:51:19.358Z,87.95
2023-03-08T05:52:46.106Z,70.95
2023-03-08T05:54:05.267Z,75.97
2023-03-08T05:55:24.729Z,83.90
2023-03-08T05:56:30.738Z,72.72
2023-03-08T05:57:43.924Z,78.97
2023-03-08T06:00:22.061Z,67.80
2023-03-08T06:01:33.409Z,60.67
2023-03-08T06:03:07.988Z,62.05
2023-03-08T06:04:15.425Z,60.13
2023-03-08T06:06:50.395Z,60.00
2023-03-08T06:08:06.791Z,55.97
2023-03-08T06:09:14.270Z,48.80
2023-03-08T06:10:21.566Z,79.00
2023-03-08T06:11:33.843Z,50.67
2023-03-08T06:12:52.713Z,50.53
2023-03-08T06:14:27.580Z,49.42
2023-03-08T06:15:40.594Z,48.90
2023-03-08T06:16:50.229Z,47.78
2023-03-08T06:17:59.040Z,48.17
2023-03-08T06:20:23.995Z,51.03
2023-03-08T06:21:53.100Z,56.92
2023-03-08T06:23:03.152Z,48.80
2023-03-08T06:24:14.182Z,49.92
2023-03-08T06:25:28.539Z,49.08
2023-03-08T06:26:42.024Z,50.70
2023-03-08T06:27:51.593Z,51.53
2023-03-08T06:29:21.117Z,46.38
2023-03-08T06:30:45.949Z,51.10
2023-03-08T06:32:20.635Z,53.08
2023-03-08T06:33:40.458Z,51.60
2023-03-08T06:34:56.864Z,48.28
2023-03-08T06:36:17.841Z,50.47
2023-03-08T06:38:01.221Z,44.38
2023-03-08T06:39:24.110Z,41.08
2023-03-08T06:40:42.758Z,40.88
2023-03-08T06:41:49.677Z,37.25
2023-03-08T06:43:02.138Z,36.60
2023-03-08T06:44:23.553Z,33.60
2023-03-08T06:46:21.080Z,32.70
2023-03-08T06:47:34.291Z,33.67
2023-03-08T06:49:23.211Z,33.15
2023-03-08T06:50:32.861Z,37.35
2023-03-08T06:51:45.816Z,32.60
2023-03-08T06:55:15.384Z,34.35
2023-03-08T06:56:26.709Z,37.17
2023-03-08T07:04:29.769Z,28.35
2023-03-08T07:06:14.760Z,27.90
2023-03-08T07:20:38.598Z,24.58
2023-03-08T07:22:03.077Z,24.63
2023-03-08T07:23:45.362Z,23.27
2023-03-08T07:25:07.862Z,27.17
2023-03-08T07:29:08.051Z,24.60
2023-03-08T07:33:30.007Z,17.95
2023-03-08T07:34:58.580Z,18.95
2023-03-08T07:38:17.599Z,19.05
2023-03-08T07:39:59.088Z,20.83
2023-03-08T07:41:35.361Z,21.63
2023-03-08T07:43:10.386Z,19.75
2023-03-08T07:46:29.003Z,20.20
2023-03-08T07:49:21.224Z,25.35
2023-03-08T07:51:32.668Z,27.85
2023-03-08T07:52:54.471Z,21.90
2023-03-08T07:54:30.887Z,24.80
2023-03-08T07:55:54.120Z,19.77
2023-03-08T07:57:36.452Z,21.17
2023-03-08T07:58:48.684Z,18.88
2023-03-08T08:00:23.096Z,15.73
2023-03-08T08:01:59.277Z,17.65
2023-03-08T08:03:25.291Z,14.80
2023-03-08T08:04:39.642Z,16.25
2023-03-08T08:08:20.593Z,15.60
2023-03-08T08:09:47.785Z,15.55
2023-03-08T08:13:24.840Z,15.05
2023-03-08T08:15:10.663Z,17.27
2023-03-08T09:07:25.711Z,15.98
2023-03-08T09:08:49.349Z,17.40
2023-03-08T09:10:33.923Z,15.77
2023-03-08T09:11:55.492Z,20.95
2023-03-08T11:40:22.154Z,29.30
2023-03-08T11:42:14.323Z,29.38
2023-03-08T11:47:17.101Z,28.17
2023-03-08T12:43:03.456Z,31.10
2023-03-08T13:09:44.625Z,28.27
2023-03-08T13:19:36.940Z,30.83
2023-03-08T13:25:26.097Z,29.13
2023-03-08T13:42:23.250Z,30.52
